.
WxDataArchive / Data Records for 2013-08-14
2013-08-13 August 2013 2013-08-15

Data Records for Wednesday, 14 August 2013

Time	Temp	Chill	HIndex	Humid	Dewpt	 Wind 	HiWind	WindDir	Rain 	Barom 
-----	----	-----	------	-----	-----	------	------	-------	-----	----- 
00:00	57.3	57.3	57.3	77	50.1	0	1	315	0.00	30.074 
00:05	57.2	57.2	57.2	77	50.1	0	1	315	0.00	30.074 
00:10	57.0	57.0	57.0	77	49.9	0	1	315	0.00	30.074 
00:15	56.9	56.9	56.9	77	49.8	0	1	315	0.00	30.077 
00:20	56.9	56.9	56.9	78	50.1	0	1	315	0.00	30.077 
00:25	56.7	56.7	56.7	78	49.9	0	1	315	0.00	30.077 
00:30	56.6	56.6	56.6	78	49.8	0	1	315	0.00	30.079 
00:35	56.5	56.5	56.5	79	50.1	0	1	315	0.00	30.079 
00:40	56.3	56.3	56.3	79	49.9	0	1	315	0.00	30.079 
00:45	56.3	56.3	56.3	79	49.9	0	1	315	0.00	30.080 
00:50	56.2	56.2	56.2	80	50.1	0	1	315	0.00	30.080 
00:55	56.0	56.0	56.0	80	49.9	0	1	315	0.00	30.080 
01:00	55.9	55.9	55.9	80	49.8	0	1	315	0.00	30.080 
01:05	55.7	55.7	55.7	81	50.0	0	1	315	0.00	30.080 
01:10	55.6	55.6	55.6	81	49.9	0	1	315	0.00	30.080 
01:15	55.6	55.6	55.6	81	49.9	0	1	315	0.00	30.081 
01:20	55.4	55.4	55.4	81	49.7	0	1	315	0.00	30.081 
01:25	55.3	55.3	55.3	81	49.6	0	0	---	0.00	30.081 
01:30	55.1	55.1	55.1	82	49.7	0	0	---	0.00	30.081 
01:35	55.1	55.1	55.1	82	49.7	0	1	315	0.00	30.081 
01:40	55.0	55.0	55.0	82	49.6	0	1	315	0.00	30.081 
01:45	54.8	54.8	54.8	82	49.4	0	0	---	0.00	30.085 
01:50	54.8	54.8	54.8	83	49.7	0	0	---	0.00	30.085 
01:55	54.7	54.7	54.7	83	49.6	0	1	315	0.00	30.085 
02:00	54.5	54.5	54.5	83	49.4	0	1	315	0.00	30.090 
02:05	54.4	54.4	54.4	84	49.7	0	0	---	0.00	30.090 
02:10	54.2	54.2	54.2	84	49.5	0	0	---	0.00	30.090 
02:15	54.2	54.2	54.2	84	49.5	0	1	315	0.00	30.087 
02:20	54.1	54.1	54.1	84	49.4	0	0	---	0.00	30.087 
02:25	54.1	54.1	54.1	84	49.4	0	1	315	0.00	30.087 
02:30	53.9	53.9	53.9	84	49.2	0	0	---	0.00	30.092 
02:35	53.8	53.8	53.8	84	49.1	0	0	---	0.00	30.092 
02:40	53.6	53.6	53.6	85	49.2	0	1	315	0.00	30.092 
02:45	53.6	53.6	53.6	85	49.2	0	1	315	0.00	30.090 
02:50	53.5	53.5	53.5	85	49.1	0	1	315	0.00	30.090 
02:55	53.3	53.3	53.3	85	48.9	0	1	315	0.00	30.090 
03:00	53.3	53.3	53.3	86	49.2	0	0	---	0.00	30.091 
03:05	53.2	53.2	53.2	86	49.1	0	0	---	0.00	30.091 
03:10	53.1	53.1	53.1	86	49.0	0	0	---	0.00	30.091 
03:15	53.1	53.1	53.1	86	49.0	0	0	---	0.00	30.091 
03:20	52.9	52.9	52.9	86	48.8	0	0	---	0.00	30.091 
03:25	52.8	52.8	52.8	86	48.7	0	0	---	0.00	30.091 
03:30	52.6	52.6	52.6	86	48.5	0	0	---	0.00	30.093 
03:35	52.6	52.6	52.6	87	48.8	0	0	---	0.00	30.093 
03:40	52.5	52.5	52.5	87	48.7	0	0	---	0.00	30.093 
03:45	52.3	52.3	52.3	87	48.5	0	0	---	0.00	30.095 
03:50	52.3	52.3	52.3	87	48.5	0	0	---	0.00	30.095 
03:55	52.2	52.2	52.2	87	48.4	0	0	---	0.00	30.095 
04:00	52.0	52.0	52.0	87	48.3	0	0	---	0.00	30.097 
04:05	51.9	51.9	51.9	87	48.2	0	0	---	0.00	30.097 
04:10	51.9	51.9	51.9	88	48.5	0	1	315	0.00	30.097 
04:15	51.7	51.7	51.7	88	48.3	0	0	---	0.00	30.102 
04:20	51.7	51.7	51.7	88	48.3	0	0	---	0.00	30.102 
04:25	51.6	51.6	51.6	88	48.2	0	0	---	0.00	30.102 
04:30	51.4	51.4	51.4	88	48.0	0	0	---	0.00	30.101 
04:35	51.3	51.3	51.3	88	47.9	0	0	---	0.00	30.101 
04:40	51.3	51.3	51.3	88	47.9	0	1	315	0.00	30.101 
04:45	51.1	51.1	51.1	88	47.7	0	1	315	0.00	30.100 
04:50	51.1	51.1	51.1	88	47.7	0	0	---	0.00	30.100 
04:55	51.0	51.0	51.0	88	47.6	0	0	---	0.00	30.100 
05:00	51.0	51.0	51.0	88	47.6	0	0	---	0.00	30.104 
05:05	50.8	50.8	50.8	88	47.4	0	0	---	0.00	30.104 
05:10	50.7	50.7	50.7	88	47.3	0	1	315	0.00	30.104 
05:15	50.5	50.5	50.5	88	47.1	0	0	---	0.00	30.108 
05:20	50.4	50.4	50.4	88	47.0	0	0	---	0.00	30.108 
05:25	50.4	50.4	50.4	88	47.0	0	0	---	0.00	30.108 
05:30	50.2	50.2	50.2	88	46.8	0	0	---	0.00	30.114 
05:35	50.1	50.1	50.1	89	47.0	0	0	---	0.00	30.114 
05:40	50.1	50.1	50.1	89	47.0	0	0	---	0.00	30.114 
05:45	49.9	49.9	49.9	89	46.8	0	0	---	0.00	30.118 
05:50	49.8	49.8	49.8	89	46.7	0	0	---	0.00	30.118 
05:55	49.8	49.8	49.8	89	46.7	0	0	---	0.00	30.118 
06:00	49.6	49.6	49.6	89	46.5	0	0	---	0.00	30.122 
06:05	49.5	49.5	49.5	89	46.4	0	0	---	0.00	30.122 
06:10	49.5	49.5	49.5	89	46.4	0	0	---	0.00	30.122 
06:15	49.4	49.4	49.4	89	46.3	0	0	---	0.00	30.128 
06:20	49.2	49.2	49.2	89	46.1	0	0	---	0.00	30.128 
06:25	49.2	49.2	49.2	89	46.1	0	0	---	0.00	30.128 
06:30	49.2	49.2	49.2	90	46.4	0	0	---	0.00	30.134 
06:35	49.1	49.1	49.1	90	46.3	0	0	---	0.00	30.134 
06:40	49.1	49.1	49.1	90	46.3	0	0	---	0.00	30.134 
06:45	48.9	48.9	48.9	90	46.1	0	0	---	0.00	30.137 
06:50	48.9	48.9	48.9	90	46.1	0	0	---	0.00	30.137 
06:55	48.8	48.8	48.8	90	46.0	0	0	---	0.00	30.137 
07:00	48.8	48.8	48.8	90	46.0	0	0	---	0.00	30.141 
07:05	48.6	48.6	48.6	90	45.8	0	0	---	0.00	30.141 
07:10	48.5	48.5	48.5	90	45.7	0	0	---	0.00	30.141 
07:15	48.5	48.5	48.5	90	45.7	0	0	---	0.00	30.150 
07:20	48.6	48.6	48.6	91	46.1	0	0	---	0.00	30.150 
07:25	48.8	48.8	48.8	91	46.3	0	0	---	0.00	30.150 
07:30	48.9	48.9	48.9	91	46.4	0	0	---	0.00	30.156 
07:35	49.2	49.2	49.2	91	46.7	0	0	---	0.00	30.156 
07:40	49.4	49.4	49.4	91	46.9	0	0	---	0.00	30.156 
07:45	49.6	49.6	49.6	90	46.8	0	1	315	0.00	30.161 
07:50	49.9	49.9	49.9	90	47.1	0	1	315	0.00	30.161 
07:55	50.4	50.4	50.4	89	47.3	0	1	315	0.00	30.161 
08:00	50.8	50.8	50.8	88	47.4	0	1	315	0.00	30.163 
08:05	51.1	51.1	51.1	87	47.4	0	2	315	0.00	30.163 
08:10	51.6	51.6	51.6	86	47.5	0	1	315	0.00	30.163 
08:15	52.0	52.0	52.0	85	47.6	0	1	315	0.00	30.166 
08:20	52.5	52.5	52.5	84	47.8	0	2	315	0.00	30.166 
08:25	52.8	52.8	52.8	83	47.8	0	2	315	0.00	30.166 
08:30	53.1	53.1	53.1	82	47.8	0	3	315	0.00	30.166 
08:35	53.5	53.5	53.5	81	47.8	1	3	315	0.00	30.166 
08:40	53.9	53.9	53.9	80	47.9	0	1	315	0.00	30.166 
08:45	54.4	54.4	54.4	79	48.0	0	3	315	0.00	30.164 
08:50	54.8	54.8	54.8	78	48.1	0	3	315	0.00	30.164 
08:55	55.0	55.0	55.0	77	47.9	1	3	315	0.00	30.164 
09:00	55.1	55.1	55.1	77	48.0	1	5	315	0.00	30.166 
09:05	55.6	55.6	55.6	77	48.5	1	3	315	0.00	30.166 
09:10	55.7	55.7	55.7	75	47.9	1	3	315	0.00	30.166 
09:15	55.9	55.9	55.9	75	48.1	1	4	315	0.00	30.167 
09:20	56.3	56.3	56.3	75	48.5	0	3	315	0.00	30.167 
09:25	56.5	56.5	56.5	75	48.7	1	5	315	0.00	30.167 
09:30	56.6	56.6	56.6	73	48.0	1	3	315	0.00	30.172 
09:35	57.0	57.0	57.0	74	48.8	0	2	315	0.00	30.172 
09:40	57.8	57.8	57.8	74	49.6	0	2	315	0.00	30.172 
09:45	58.3	58.3	58.3	73	49.7	0	2	315	0.00	30.173 
09:50	58.7	58.7	58.7	73	50.1	0	2	315	0.00	30.173 
09:55	59.3	59.3	59.3	70	49.5	0	3	315	0.00	30.173 
10:00	59.5	59.5	59.5	69	49.3	1	4	315	0.00	30.171 
10:05	59.3	59.3	59.3	69	49.1	1	3	315	0.00	30.171 
10:10	59.3	59.3	59.3	68	48.7	1	3	315	0.00	30.171 
10:15	59.2	59.2	59.2	69	49.0	1	4	315	0.00	30.178 
10:20	59.5	59.5	59.5	69	49.3	1	4	315	0.00	30.178 
10:25	59.8	59.8	59.8	66	48.4	1	5	338	0.00	30.178 
10:30	59.9	59.9	59.9	67	48.9	1	3	338	0.00	30.179 
10:35	60.2	60.2	60.2	66	48.8	1	4	292	0.00	30.179 
10:40	60.5	60.5	60.5	64	48.3	2	5	292	0.00	30.179 
10:45	61.3	61.3	61.3	65	49.4	1	3	68	0.00	30.173 
10:50	62.4	62.4	62.4	61	48.8	1	4	112	0.00	30.173 
10:55	63.2	63.2	63.2	62	50.0	1	3	112	0.00	30.173 
11:00	63.7	63.7	63.7	56	47.7	1	5	315	0.00	30.176 
11:05	64.0	64.0	64.0	58	48.9	0	3	90	0.00	30.176 
11:10	64.0	64.0	64.0	56	48.0	1	3	90	0.00	30.176 
11:15	64.3	64.3	64.3	57	48.7	1	5	112	0.00	30.175 
11:20	64.5	64.5	64.5	56	48.4	1	4	45	0.00	30.175 
11:25	63.9	63.9	63.9	56	47.9	1	5	338	0.00	30.175 
11:30	63.2	63.2	63.2	56	47.2	2	4	292	0.00	30.179 
11:35	62.7	62.7	62.7	56	46.8	2	4	315	0.00	30.179 
11:40	62.6	62.6	62.6	60	48.5	0	2	315	0.00	30.179 
11:45	62.7	62.7	62.7	59	48.2	1	5	315	0.00	30.178 
11:50	63.9	63.9	63.9	58	48.8	1	4	315	0.00	30.178 
11:55	64.5	64.5	64.5	55	48.0	1	5	315	0.00	30.178 
12:00	65.6	65.6	65.6	54	48.5	2	5	90	0.00	30.175 
12:05	65.2	65.2	65.2	52	47.1	1	3	45	0.00	30.175 
12:10	64.2	64.2	64.2	57	48.6	0	3	45	0.00	30.175 
12:15	64.7	64.7	64.7	54	47.7	1	4	112	0.00	30.175 
12:20	65.5	65.5	65.5	55	48.9	1	5	112	0.00	30.175 
12:25	66.4	66.4	66.4	50	47.2	2	6	112	0.00	30.175 
12:30	66.9	66.9	66.9	50	47.6	2	9	90	0.00	30.168 
12:35	66.9	66.9	66.9	50	47.6	1	4	90	0.00	30.168 
12:40	66.3	66.3	66.3	52	48.1	1	4	0	0.00	30.168 
12:45	66.0	66.0	66.0	51	47.3	1	5	90	0.00	30.166 
12:50	66.3	66.3	66.3	53	48.6	1	6	90	0.00	30.166 
12:55	66.9	66.9	66.9	54	49.7	1	3	112	0.00	30.166 
13:00	67.1	67.1	67.1	51	48.4	1	3	112	0.00	30.163 
13:05	67.1	67.1	67.1	51	48.4	2	6	112	0.00	30.163 
13:10	65.8	65.8	65.8	51	47.2	1	3	315	0.00	30.163 
13:15	65.3	65.3	65.3	57	49.7	0	3	315	0.00	30.165 
13:20	66.0	66.0	66.0	54	48.9	1	3	315	0.00	30.165 
13:25	66.1	66.1	66.1	50	46.9	1	3	292	0.00	30.165 
13:30	65.8	65.8	65.8	52	47.7	0	2	315	0.00	30.164 
13:35	65.8	65.8	65.8	54	48.7	1	3	338	0.00	30.164 
13:40	66.8	66.8	66.8	54	49.6	1	4	45	0.00	30.164 
13:45	67.4	67.4	67.4	48	47.0	1	3	22	0.00	30.160 
13:50	68.3	68.3	68.3	48	47.8	1	3	45	0.00	30.160 
13:55	67.3	67.3	67.3	47	46.4	1	5	315	0.00	30.160 
14:00	67.3	67.3	67.3	48	46.9	1	3	90	0.00	30.159 
14:05	68.3	68.3	68.3	48	47.8	1	4	90	0.00	30.159 
14:10	68.4	68.4	68.4	47	47.4	2	7	112	0.00	30.159 
14:15	67.6	67.6	67.6	49	47.8	1	5	292	0.00	30.161 
14:20	67.3	67.3	67.3	47	46.4	1	3	112	0.00	30.161 
14:25	68.1	68.1	68.1	49	48.2	1	3	112	0.00	30.161 
14:30	68.4	68.4	68.4	48	47.9	2	5	338	0.00	30.156 
14:35	68.4	68.4	68.4	46	46.8	1	4	338	0.00	30.156 
14:40	68.1	68.1	68.1	51	49.3	0	3	338	0.00	30.156 
14:45	68.8	68.8	68.8	47	47.7	1	4	338	0.00	30.150 
14:50	68.6	68.6	68.6	45	46.4	1	2	315	0.00	30.150 
14:55	68.1	68.1	68.1	48	47.7	0	3	315	0.00	30.150 
15:00	67.9	67.9	67.9	51	49.1	1	3	292	0.00	30.154 
15:05	67.8	67.8	67.8	47	46.8	1	3	0	0.00	30.154 
15:10	67.9	67.9	67.9	46	46.3	1	3	315	0.00	30.154 
15:15	68.8	68.8	68.8	47	47.7	0	2	315	0.00	30.158 
15:20	69.4	69.4	69.4	44	46.5	1	3	90	0.00	30.158 
15:25	69.4	69.4	69.4	47	48.3	1	2	90	0.00	30.158 
15:30	69.1	69.1	69.1	45	46.9	1	3	90	0.00	30.158 
15:35	68.3	68.3	68.3	47	47.3	0	2	90	0.00	30.158 
15:40	68.3	68.3	68.3	48	47.8	1	2	90	0.00	30.158 
15:45	68.8	68.8	68.8	43	45.4	1	2	90	0.00	30.150 
15:50	69.6	69.6	69.6	43	46.1	1	5	90	0.00	30.150 
15:55	69.3	69.3	69.3	46	47.6	1	4	112	0.00	30.150 
16:00	68.9	68.9	68.9	49	48.9	1	4	112	0.00	30.148 
16:05	69.1	69.1	69.1	47	48.0	1	4	112	0.00	30.148 
16:10	69.4	69.4	69.4	44	46.5	1	2	0	0.00	30.148 
16:15	69.6	69.6	69.6	48	49.0	1	3	22	0.00	30.146 
16:20	69.8	69.8	69.8	46	48.1	1	3	0	0.00	30.146 
16:25	70.1	70.1	70.1	47	48.9	1	3	0	0.00	30.146 
16:30	70.3	70.3	70.3	45	47.9	1	3	0	0.00	30.146 
16:35	70.4	70.4	70.4	43	46.8	2	4	0	0.00	30.146 
16:40	70.1	70.1	70.1	45	47.8	1	3	338	0.00	30.146 
16:45	70.3	70.3	70.3	44	47.3	1	3	338	0.00	30.143 
16:50	70.8	70.8	70.8	44	47.8	1	2	315	0.00	30.143 
16:55	71.3	71.3	71.3	46	49.4	1	3	292	0.00	30.143 
17:00	71.6	71.6	71.6	43	47.9	0	4	315	0.00	30.141 
17:05	71.8	71.8	71.8	42	47.5	1	4	315	0.00	30.141 
17:10	71.8	71.8	71.8	41	46.8	0	2	315	0.00	30.141 
17:15	71.5	71.5	71.5	44	48.4	1	3	315	0.00	30.140 
17:20	71.1	71.1	71.1	42	46.8	1	4	315	0.00	30.140 
17:25	70.8	70.8	70.8	43	47.2	1	4	315	0.00	30.140 
17:30	70.8	70.8	70.8	43	47.2	1	4	292	0.00	30.141 
17:35	71.3	71.3	71.3	43	47.6	1	4	292	0.00	30.141 
17:40	71.3	71.3	71.3	42	47.0	1	5	315	0.00	30.141 
17:45	70.4	70.4	70.4	43	46.8	0	3	315	0.00	30.145 
17:50	69.4	69.4	69.4	45	47.1	0	1	315	0.00	30.145 
17:55	68.9	68.9	68.9	45	46.7	0	1	315	0.00	30.145 
18:00	68.4	68.4	68.4	46	46.8	0	0	---	0.00	30.146 
18:05	68.3	68.3	68.3	46	46.7	0	1	315	0.00	30.146 
18:10	68.1	68.1	68.1	48	47.7	0	1	315	0.00	30.146 
18:15	68.1	68.1	68.1	48	47.7	0	0	---	0.00	30.149 
18:20	68.1	68.1	68.1	48	47.7	0	1	315	0.00	30.149 
18:25	68.3	68.3	68.3	49	48.4	0	2	315	0.00	30.149 
18:30	68.6	68.6	68.6	48	48.1	0	1	315	0.00	30.144 
18:35	69.1	69.1	69.1	47	48.0	0	1	315	0.00	30.144 
18:40	69.3	69.3	69.3	46	47.6	0	1	315	0.00	30.144 
18:45	69.4	69.4	69.4	45	47.1	0	3	22	0.00	30.135 
18:50	69.6	69.6	69.6	47	48.5	0	1	22	0.00	30.135 
18:55	69.8	69.8	69.8	48	49.2	0	1	22	0.00	30.135 
19:00	69.8	69.8	69.8	44	46.9	0	2	22	0.00	30.133 
19:05	69.4	69.4	69.4	45	47.1	0	2	338	0.00	30.133 
19:10	69.1	69.1	69.1	45	46.9	0	1	338	0.00	30.133 
19:15	68.9	68.9	68.9	46	47.3	0	1	338	0.00	30.131 
19:20	68.8	68.8	68.8	45	46.6	0	1	338	0.00	30.131 
19:25	68.6	68.6	68.6	46	47.0	0	1	338	0.00	30.131 
19:30	68.4	68.4	68.4	45	46.2	0	1	338	0.00	30.131 
19:35	68.3	68.3	68.3	44	45.5	0	1	338	0.00	30.131 
19:40	68.3	68.3	68.3	47	47.3	0	1	338	0.00	30.131 
19:45	68.1	68.1	68.1	46	46.5	0	0	---	0.00	30.131 
19:50	67.8	67.8	67.8	48	47.4	0	0	---	0.00	30.131 
19:55	67.6	67.6	67.6	48	47.2	0	0	---	0.00	30.131 
20:00	67.4	67.4	67.4	50	48.1	0	0	---	0.00	30.133 
20:05	67.1	67.1	67.1	50	47.8	0	0	---	0.00	30.133 
20:10	66.9	66.9	66.9	50	47.6	0	0	---	0.00	30.133 
20:15	66.9	66.9	66.9	51	48.2	0	0	---	0.00	30.131 
20:20	66.8	66.8	66.8	51	48.1	0	0	---	0.00	30.131 
20:25	66.3	66.3	66.3	53	48.6	0	0	---	0.00	30.131 
20:30	65.8	65.8	65.8	53	48.2	0	0	---	0.00	30.132 
20:35	65.5	65.5	65.5	54	48.4	0	0	---	0.00	30.132 
20:40	65.2	65.2	65.2	55	48.6	0	0	---	0.00	30.132 
20:45	64.7	64.7	64.7	56	48.6	0	0	---	0.00	30.134 
20:50	64.2	64.2	64.2	57	48.6	0	0	---	0.00	30.134 
20:55	63.7	63.7	63.7	58	48.6	0	0	---	0.00	30.134 
21:00	63.2	63.2	63.2	60	49.1	0	0	---	0.00	30.143 
21:05	62.7	62.7	62.7	61	49.1	0	0	---	0.00	30.143 
21:10	62.4	62.4	62.4	62	49.2	0	0	---	0.00	30.143 
21:15	62.0	62.0	62.0	64	49.7	0	0	---	0.00	30.135 
21:20	61.6	61.6	61.6	64	49.3	0	0	---	0.00	30.135 
21:25	61.2	61.2	61.2	66	49.7	0	0	---	0.00	30.135 
21:30	60.9	60.9	60.9	67	49.9	0	0	---	0.00	30.144 
21:35	60.5	60.5	60.5	69	50.3	0	0	---	0.00	30.144 
21:40	60.1	60.1	60.1	70	50.3	0	0	---	0.00	30.144 
21:45	59.9	59.9	59.9	71	50.5	0	0	---	0.00	30.146 
21:50	59.6	59.6	59.6	72	50.6	0	0	---	0.00	30.146 
21:55	59.5	59.5	59.5	73	50.8	0	0	---	0.00	30.146 
22:00	59.2	59.2	59.2	73	50.5	0	0	---	0.00	30.149 
22:05	58.9	58.9	58.9	74	50.6	0	0	---	0.00	30.149 
22:10	58.6	58.6	58.6	75	50.7	0	0	---	0.00	30.149 
22:15	58.3	58.3	58.3	75	50.4	0	0	---	0.00	30.147 
22:20	58.1	58.1	58.1	76	50.6	0	0	---	0.00	30.147 
22:25	58.0	58.0	58.0	77	50.8	0	0	---	0.00	30.147 
22:30	57.6	57.6	57.6	77	50.4	0	0	---	0.00	30.152 
22:35	57.5	57.5	57.5	77	50.3	0	0	---	0.00	30.152 
22:40	57.3	57.3	57.3	78	50.5	0	0	---	0.00	30.152 
22:45	57.2	57.2	57.2	78	50.4	0	0	---	0.00	30.149 
22:50	57.0	57.0	57.0	79	50.5	0	0	---	0.00	30.149 
22:55	56.9	56.9	56.9	79	50.5	0	0	---	0.00	30.149 
23:00	56.7	56.7	56.7	80	50.6	0	0	---	0.00	30.149 
23:05	56.6	56.6	56.6	80	50.5	0	0	---	0.00	30.149 
23:10	56.6	56.6	56.6	81	50.8	0	0	---	0.00	30.149 
23:15	56.5	56.5	56.5	81	50.7	0	0	---	0.00	30.152 
23:20	56.3	56.3	56.3	81	50.5	0	0	---	0.00	30.152 
23:25	56.2	56.2	56.2	81	50.4	0	0	---	0.00	30.152 
23:30	56.0	56.0	56.0	81	50.3	0	0	---	0.00	30.158 
23:35	55.9	55.9	55.9	82	50.5	0	0	---	0.00	30.158 
23:40	55.7	55.7	55.7	83	50.6	0	0	---	0.00	30.158 
23:45	55.7	55.7	55.7	83	50.6	0	0	---	0.00	30.159 
23:50	55.6	55.6	55.6	83	50.5	0	0	---	0.00	30.159 
23:55	55.7	55.7	55.7	84	50.9	0	0	---	0.00	30.159 

CoCoRaHS
IN-AL-39
A2 Web Hosting
Creative Commons License
GoDaddy
search engine by freefind advanced

loaded 2018-11-13 21:22:07 • last modified 2010-11-18 10:43:29
Privacy PolicyDisclaimer
• wx.awcolley.com is powered by PmWiki v.2002016 •
• all content (unless otherwise noted) © 2018 A W Colley